Impacts METAR Board
IDs:

KCLE - Cleveland/Hopkins In, OH, US

Updated at: 1300 UTC 15 Jul 2020
Potential Impact None Slight Moderate High
Time 15/01Z 15/02Z 15/03Z 15/04Z 15/05Z 15/06Z 15/07Z 15/08Z 15/09Z 15/10Z 15/11Z 15/12Z 15/13Z
Temp77 76 74 70 67 67 66 65 66 65 68 71 76
Dewpt54 55 57 58 57 58 58 58 59 59 59 59 60
Altim30.11 30.11 30.14 30.13 30.14 30.13 30.13 30.13 30.13 30.13 30.13 30.14 30.15
VIS10 10 10 10 10 10 10 10 10 10 10 10 10
CIG200 200 200 250 250 -- -- -- -- -- -- -- --
CoverBKNBKNBKNBKNBKNSCTSCTFEWFEWFEWSCTSCTFEW
FltCatVFRVFRVFRVFRVFRVFRVFRVFRVFRVFRVFRVFRVFR
WX--------------------------
WDir5090110140160160160170180160160160170
WSpd6 7 7 7 6 7 5 5 4 6 8 7 7
WGst-- -- -- -- -- -- -- -- -- -- -- -- --
Raw hourly METARs
KCLE 150051Z 05006KT 10SM BKN200 25/12 A3011 RMK AO2 SLP191 T02500122
KCLE 150151Z 09007KT 10SM BKN200 24/13 A3011 RMK AO2 SLP191 T02440128
KCLE 150251Z 11007KT 10SM BKN200 23/14 A3014 RMK AO2 SLP199 T02330139 53009
KCLE 150351Z 14007KT 10SM BKN250 21/14 A3013 RMK AO2 SLP199 T02110144
KCLE 150451Z 16006KT 10SM BKN250 19/14 A3014 RMK AO2 SLP200 T01940139 402780144
KCLE 150551Z 16007KT 10SM SCT250 19/14 A3013 RMK AO2 SLP198 T01940144 10256 20194 58002
KCLE 150651Z 16005KT 10SM SCT250 19/14 A3013 RMK AO2 SLP198 T01890144
KCLE 150751Z 17005KT 10SM FEW250 18/14 A3013 RMK AO2 SLP197 T01830144
KCLE 150851Z 18004KT 10SM FEW250 19/15 A3013 RMK AO2 SLP199 T01890150 53002
KCLE 150951Z 16006KT 10SM FEW150 FEW250 18/15 A3013 RMK AO2 SLP198 T01830150
KCLE 151051Z 16008KT 10SM SCT250 20/15 A3013 RMK AO2 SLP196 T02000150
KCLE 151151Z 16007KT 10SM SCT250 22/15 A3014 RMK AO2 SLP200 T02170150 10217 20183 53001
KCLE 151251Z 17007KT 10SM FEW250 24/16 A3015 RMK AO2 SLP202 T02440156



Page loaded:  13:01 UTC  |   06:01 AM Pacific  |   07:01 AM Mountain  |   08:01 AM Central  |   09:01 AM Eastern

 

ADVISORIES

FORECASTS

FORECASTS

OBSERVATIONS

USER TOOLS

ABOUT US